Harlan, IA

11:34 PM CST on December 13, 2017 (GMT -0600)
Harlan Municipal

Weather History for KHNR - February, 2014

Change the Weather History Date:

Saturday, February 15, 2014

  Actual Average Record
Temperature  
Mean Temperature 27 °F -  
Max Temperature 46 °F 33 °F 59 °F (1984)
Min Temperature 8 °F 15 °F -10 °F (1958)
Degree Days  
Heating Degree Days 38    
Moisture  
Dew Point 19 °F    
Average Humidity 76    
Maximum Humidity 86    
Minimum Humidity 53    
Precipitation  
Precipitation 0.00 in - - ()
Sea Level Pressure  
Sea Level Pressure 29.95 in    
Wind  
Wind Speed 10 mph (SW)    
Max Wind Speed 30 mph    
Max Gust Speed 45 mph    
Visibility 10 miles    
Events Snow    
Averages and records for this station are not official NWS values.
T = Trace of Precipitation, MM = Missing Value Source: NWS Daily Summary

Daily Weather History Graph

Daily Weather History Graph

Search for Another Location

Airport or City:

Trip Planner

Search our weather history database for the weather conditions in past years. The results will help you decide how hot, cold, wet, or windy it might be!

Date:

Astronomy

Feb. 15, 2014 Rise Set
Actual Time 7:16 AM CST 5:55 PM CST
Civil Twilight 6:48 AM CST 6:23 PM CST
Nautical Twilight 6:15 AM CST 6:55 PM CST
Astronomical Twilight 5:43 AM CST 7:28 PM CST
Moon 6:57 PM CST (2/15) 7:14 AM CST (2/15)
Length of Visible Light 11h 35m
Length of Day
10h 38m
Waxing Gibbous, 99% of the Moon is Illuminated
Feb 15
Waxing Gibbous
Feb 22
Last Quarter
Mar 1
New
Mar 8
First Quarter
Mar 16
Full

Hourly Weather History & Observations

Time (CST) Temp. Windchill Dew Point Humidity Pressure Visibility Wind Dir Wind Speed Gust Speed Precip Events Conditions
12:15 AM 8.6 °F - 5.0 °F 85% 30.08 in 10.0 mi Calm Calm - N/A   Clear
12:35 AM 10.4 °F - 5.0 °F 79% 30.08 in 10.0 mi Calm Calm - N/A   Clear
12:55 AM 10.4 °F - 5.0 °F 79% 30.08 in 10.0 mi Calm Calm - N/A   Clear
1:15 AM 10.4 °F 4.0 °F 5.0 °F 79% 30.09 in 10.0 mi SSW 3.5 mph - N/A   Clear
1:35 AM 10.4 °F - 5.0 °F 79% 30.07 in 10.0 mi Calm Calm - N/A   Clear
1:55 AM 10.4 °F 4.0 °F 5.0 °F 79% 30.07 in 10.0 mi South 3.5 mph - N/A   Clear
2:15 AM 10.4 °F - 5.0 °F 79% 30.07 in 10.0 mi Calm Calm - N/A   Clear
2:35 AM 10.4 °F 2.2 °F 5.0 °F 79% 30.06 in - South 4.6 mph - N/A   Clear
2:55 AM 10.4 °F 0.8 °F 5.0 °F 79% 30.05 in 10.0 mi South 5.8 mph - N/A   Clear
3:15 AM 12.2 °F 2.9 °F 6.8 °F 79% 30.03 in 10.0 mi South 5.8 mph - N/A   Clear
3:35 AM 12.2 °F 1.7 °F 6.8 °F 79% 30.03 in 10.0 mi South 6.9 mph - N/A   Partly Cloudy
3:55 AM 12.2 °F 2.9 °F 6.8 °F 79% 30.02 in 10.0 mi South 5.8 mph - N/A   Clear
4:15 AM 12.2 °F 4.3 °F 6.8 °F 79% 30.00 in 10.0 mi South 4.6 mph - N/A   Partly Cloudy
4:35 AM 14.0 °F 5.1 °F 6.8 °F 73% 29.99 in 10.0 mi South 5.8 mph - N/A   Mostly Cloudy
4:55 AM 14.0 °F 2.9 °F 8.6 °F 79% 29.97 in 10.0 mi South 8.1 mph - N/A   Overcast
5:15 AM 15.8 °F 4.2 °F 10.4 °F 79% 29.98 in 10.0 mi South 9.2 mph - N/A   Overcast
5:35 AM 15.8 °F 3.4 °F 10.4 °F 79% 29.97 in 10.0 mi South 10.4 mph - N/A   Overcast
5:55 AM 15.8 °F 3.4 °F 10.4 °F 79% 29.98 in 10.0 mi South 10.4 mph - N/A   Overcast
6:15 AM 17.6 °F 7.3 °F 10.4 °F 73% 29.97 in 10.0 mi South 8.1 mph - N/A   Overcast
6:35 AM 17.6 °F 5.0 °F 12.2 °F 79% 29.97 in 10.0 mi South 11.5 mph - N/A   Overcast
6:55 AM 19.4 °F 7.2 °F 12.2 °F 74% 29.96 in 10.0 mi South 11.5 mph - N/A   Overcast
7:15 AM 19.4 °F 7.2 °F 14.0 °F 80% 29.94 in 2.5 mi SSE 11.5 mph - N/A Snow Light Snow
7:35 AM 19.4 °F 7.2 °F 12.2 °F 74% 29.94 in 10.0 mi South 11.5 mph 17.3 mph N/A   Mostly Cloudy
7:55 AM 19.4 °F 6.0 °F 14.0 °F 80% 29.94 in 9.0 mi South 13.8 mph - N/A   Mostly Cloudy
8:15 AM 19.4 °F 6.6 °F 14.0 °F 80% 29.95 in 10.0 mi South 12.7 mph - N/A   Mostly Cloudy
8:35 AM 19.4 °F 6.0 °F 14.0 °F 80% 29.94 in 10.0 mi South 13.8 mph - N/A   Overcast
8:55 AM 21.2 °F 8.9 °F 14.0 °F 74% 29.96 in 10.0 mi SSW 12.7 mph - N/A   Overcast
9:15 AM 21.2 °F 8.9 °F 15.8 °F 80% 29.93 in 7.0 mi South 12.7 mph - N/A   Scattered Clouds
9:35 AM 21.2 °F 7.3 °F 15.8 °F 80% 29.91 in 10.0 mi South 16.1 mph - N/A   Scattered Clouds
9:55 AM 23.0 °F 9.2 °F 15.8 °F 74% 29.92 in 10.0 mi South 17.3 mph - N/A   Mostly Cloudy
10:15 AM 23.0 °F 8.0 °F 15.8 °F 74% 29.90 in 7.0 mi South 20.7 mph 26.5 mph N/A   Scattered Clouds
10:35 AM 23.0 °F 8.3 °F 17.6 °F 80% 29.91 in 1.0 mi South 19.6 mph 25.3 mph N/A   Clear
10:55 AM 24.8 °F 10.7 °F 19.4 °F 80% 29.88 in 4.0 mi South 19.6 mph 25.3 mph N/A   Haze
11:15 AM 24.8 °F 10.0 °F 19.4 °F 80% 29.90 in 10.0 mi SSW 21.9 mph - N/A   Scattered Clouds
11:35 AM 26.6 °F 15.2 °F 19.4 °F 74% 29.88 in 10.0 mi South 13.8 mph 24.2 mph N/A   Mostly Cloudy
11:55 AM 26.6 °F 12.7 °F 21.2 °F 80% 29.87 in - SSW 20.7 mph 26.5 mph N/A   Overcast
12:15 PM 26.6 °F 12.7 °F 21.2 °F 80% 29.85 in 10.0 mi SSW 20.7 mph 31.1 mph N/A   Scattered Clouds
12:35 PM 28.4 °F 15.4 °F 23.0 °F 80% 29.83 in 10.0 mi SSW 19.6 mph - N/A   Partly Cloudy
12:55 PM 32.0 °F 20.5 °F 24.8 °F 75% 29.84 in 10.0 mi SSW 18.4 mph 24.2 mph N/A   Clear
1:15 PM 32.0 °F 20.1 °F 24.8 °F 75% 29.83 in 10.0 mi SSW 19.6 mph 25.3 mph N/A   Clear
1:35 PM 33.8 °F 22.5 °F 26.6 °F 75% 29.82 in 10.0 mi SSW 19.6 mph 26.5 mph N/A   Clear
1:55 PM 35.6 °F 25.2 °F 26.6 °F 70% 29.82 in 10.0 mi SW 18.4 mph - N/A   Clear
2:15 PM 35.6 °F 25.5 °F 26.6 °F 70% 29.81 in 10.0 mi SSW 17.3 mph 25.3 mph N/A   Clear
2:35 PM 37.4 °F 27.5 °F 28.4 °F 70% 29.80 in 10.0 mi SW 18.4 mph - N/A   Clear
2:55 PM 37.4 °F 27.8 °F 28.4 °F 70% 29.79 in 10.0 mi SW 17.3 mph - N/A   Clear
3:15 PM 39.2 °F 30.5 °F 28.4 °F 65% 29.79 in 10.0 mi SSW 16.1 mph - N/A   Clear
3:35 PM 41.0 °F 32.2 °F 30.2 °F 65% 29.78 in 10.0 mi SW 18.4 mph - N/A   Clear
3:55 PM 42.8 °F 35.4 °F 30.2 °F 61% 29.78 in 10.0 mi SSW 15.0 mph 20.7 mph N/A   Partly Cloudy
4:15 PM 42.8 °F 35.8 °F 32.0 °F 66% 29.80 in 10.0 mi SW 13.8 mph - N/A   Clear
4:35 PM 42.8 °F 36.6 °F 32.0 °F 66% 29.81 in 10.0 mi SW 11.5 mph - N/A   Clear
4:55 PM 42.8 °F 36.6 °F 32.0 °F 66% 29.82 in 10.0 mi WSW 11.5 mph - N/A   Scattered Clouds
5:15 PM 44.6 °F 37.8 °F 32.0 °F 61% 29.83 in 10.0 mi WNW 15.0 mph 21.9 mph N/A   Mostly Cloudy
5:35 PM 46.4 °F 37.7 °F 30.2 °F 53% 29.85 in 10.0 mi NW 26.5 mph 34.5 mph N/A   Scattered Clouds
5:55 PM 44.6 °F 35.5 °F 30.2 °F 57% 29.87 in 10.0 mi NW 25.3 mph 35.7 mph N/A   Partly Cloudy
6:15 PM 42.8 °F 32.3 °F 30.2 °F 61% 29.90 in 10.0 mi NNW 29.9 mph 44.9 mph N/A   Clear
6:35 PM 41.0 °F 31.6 °F 30.2 °F 65% 29.92 in 10.0 mi NNW 20.7 mph 29.9 mph N/A   Clear
6:55 PM 39.2 °F 28.3 °F 30.2 °F 70% 29.94 in 10.0 mi NNW 25.3 mph 36.8 mph N/A   Clear
7:15 PM 35.6 °F 23.7 °F 28.4 °F 75% 29.96 in 10.0 mi NNW 24.2 mph 33.4 mph N/A   Clear
7:35 PM 33.8 °F 20.5 °F 28.4 °F 81% 29.98 in 10.0 mi NNW 27.6 mph 35.7 mph N/A   Clear
7:55 PM 33.8 °F 21.6 °F 28.4 °F 81% 29.99 in 10.0 mi North 23.0 mph 33.4 mph N/A   Clear
8:15 PM 32.0 °F 18.9 °F 26.6 °F 80% 30.00 in 10.0 mi NNW 24.2 mph 32.2 mph N/A   Clear
8:35 PM 32.0 °F 19.5 °F 26.6 °F 80% 30.01 in 10.0 mi North 21.9 mph 27.6 mph N/A   Clear
8:55 PM 32.0 °F 18.4 °F 26.6 °F 80% 30.00 in 10.0 mi North 26.5 mph 33.4 mph N/A   Mostly Cloudy
9:15 PM 32.0 °F 19.2 °F 26.6 °F 80% 30.01 in 10.0 mi NNW 23.0 mph 34.5 mph N/A   Overcast
9:35 PM 30.2 °F 16.5 °F 26.6 °F 86% 30.03 in - North 24.2 mph 39.1 mph N/A   Overcast
9:55 PM 30.2 °F 17.1 °F 26.6 °F 86% 30.05 in 10.0 mi North 21.9 mph 31.1 mph N/A   Overcast
10:15 PM 30.2 °F 17.4 °F 26.6 °F 86% 30.06 in 10.0 mi NNW 20.7 mph 27.6 mph N/A   Overcast
10:35 PM 30.2 °F 18.5 °F 26.6 °F 86% 30.06 in 10.0 mi North 17.3 mph 27.6 mph N/A   Overcast
10:55 PM 30.2 °F 18.9 °F 26.6 °F 86% 30.07 in 10.0 mi NNW 16.1 mph 25.3 mph N/A   Overcast
11:15 PM 30.2 °F 20.2 °F 24.8 °F 80% 30.06 in 10.0 mi North 12.7 mph 25.3 mph N/A   Overcast
11:35 PM 30.2 °F 20.2 °F 24.8 °F 80% 30.06 in 10.0 mi North 12.7 mph 23.0 mph N/A   Overcast
11:55 PM 30.2 °F 20.2 °F 24.8 °F 80% 30.08 in 10.0 mi North 12.7 mph 20.7 mph N/A   Overcast